createdAt,value
2019-04-04T00:10:06.967Z,44.70
2019-04-04T00:20:12.800Z,33.17
2019-04-04T00:30:20.741Z,26.37
2019-04-04T00:40:26.513Z,34.27
2019-04-04T00:50:32.148Z,33.73
2019-04-04T01:00:37.968Z,26.53
2019-04-04T01:10:43.665Z,35.43
2019-04-04T01:20:50.669Z,30.50
2019-04-04T01:30:56.591Z,27.77
2019-04-04T01:41:04.491Z,36.30
2019-04-04T01:51:09.737Z,34.43
2019-04-04T02:01:16.640Z,31.17
2019-04-04T02:11:22.781Z,27.80
2019-04-04T02:21:29.195Z,30.67
2019-04-04T02:31:36.882Z,23.63
2019-04-04T02:41:47.552Z,23.50
2019-04-04T02:51:51.148Z,27.40
2019-04-04T03:01:56.989Z,29.33
2019-04-04T03:12:02.696Z,26.93
2019-04-04T03:22:08.391Z,28.53
2019-04-04T03:32:16.261Z,28.73
2019-04-04T03:42:26.638Z,31.13
2019-04-04T03:52:32.370Z,22.77
2019-04-04T04:02:38.181Z,22.57
2019-04-04T04:12:43.978Z,23.20
2019-04-04T04:22:51.063Z,26.53
2019-04-04T04:32:58.212Z,26.97
2019-04-04T04:43:04.969Z,22.37
2019-04-04T04:53:11.616Z,21.43
2019-04-04T05:03:19.173Z,24.13
2019-04-04T05:13:28.593Z,29.37
2019-04-04T05:23:32.159Z,22.37
2019-04-04T05:33:37.838Z,23.67
2019-04-04T05:43:43.497Z,25.73
2019-04-04T05:53:50.426Z,21.80
2019-04-04T06:03:56.061Z,19.50
2019-04-04T06:14:01.595Z,24.60
2019-04-04T06:24:07.195Z,25.30
2019-04-04T06:34:13.403Z,23.37
2019-04-04T06:44:18.925Z,27.00
2019-04-04T06:54:25.519Z,25.20
2019-04-04T07:04:34.212Z,22.27
2019-04-04T07:14:45.780Z,32.87
2019-04-04T07:24:45.879Z,21.77
2019-04-04T07:34:57.235Z,24.07
2019-04-04T07:45:05.932Z,23.07
2019-04-04T07:55:18.233Z,23.53
2019-04-04T08:05:26.039Z,19.83
2019-04-04T08:15:40.234Z,26.70
2019-04-04T08:25:45.746Z,30.20
2019-04-04T08:35:51.368Z,22.70
2019-04-04T08:45:56.954Z,27.70
2019-04-04T08:56:02.551Z,21.73
2019-04-04T09:06:08.074Z,24.00
2019-04-04T09:16:13.644Z,26.80
2019-04-04T09:26:19.239Z,29.27
2019-04-04T09:36:24.883Z,19.20
2019-04-04T09:46:31.527Z,18.20
2019-04-04T09:56:37.076Z,20.73
2019-04-04T10:06:42.683Z,19.80
2019-04-04T10:16:48.182Z,16.20
2019-04-04T10:26:53.682Z,19.47
2019-04-04T10:36:59.214Z,16.93
2019-04-04T10:47:05.835Z,21.30
2019-04-04T10:57:11.443Z,15.80
2019-04-04T11:07:16.979Z,13.30
2019-04-04T11:17:22.508Z,16.00
2019-04-04T11:27:28.075Z,13.87
2019-04-04T11:37:33.907Z,12.10
2019-04-04T11:47:39.474Z,16.73
2019-04-04T11:57:45.007Z,13.03
2019-04-04T12:07:50.634Z,12.97
2019-04-04T12:17:55.895Z,10.33
2019-04-04T12:28:01.209Z,11.57
2019-04-04T12:38:06.739Z,13.73
2019-04-04T12:48:12.285Z,14.33
2019-04-04T12:58:18.794Z,13.33
2019-04-04T13:08:24.405Z,10.97
2019-04-04T13:18:29.904Z,9.47
2019-04-04T13:28:35.375Z,12.27
2019-04-04T13:38:40.985Z,11.00
2019-04-04T13:48:46.542Z,81.07
2019-04-04T13:58:55.516Z,66.80
2019-04-04T14:09:02.518Z,15.90
2019-04-04T14:19:09.225Z,17.90
2019-04-04T14:29:26.772Z,14.10
2019-04-04T14:39:21.879Z,15.87
2019-04-04T14:49:52.090Z,50.00
2019-04-04T14:59:57.483Z,17.80
2019-04-04T15:10:03.226Z,16.93
2019-04-04T15:20:09.227Z,21.87
2019-04-04T15:30:15.641Z,14.27
2019-04-04T15:40:21.652Z,18.27
2019-04-04T15:50:27.363Z,14.90
2019-04-04T16:00:32.997Z,21.70
2019-04-04T16:10:38.755Z,16.07
2019-04-04T16:20:44.622Z,15.23
2019-04-04T16:30:50.340Z,17.47
2019-04-04T16:40:56.039Z,21.37
2019-04-04T16:51:01.955Z,18.77
2019-04-04T17:01:09.290Z,27.73
2019-04-04T17:11:15.723Z,27.63
2019-04-04T17:21:21.525Z,32.97
2019-04-04T17:31:27.322Z,50.00
2019-04-04T17:41:33.226Z,49.13
2019-04-04T17:51:38.851Z,81.03
2019-04-04T18:01:46.704Z,94.33
2019-04-04T18:11:52.842Z,47.23
2019-04-04T18:21:58.776Z,49.93
2019-04-04T18:32:04.891Z,57.80
2019-04-04T18:42:10.420Z,75.00
2019-04-04T18:52:16.200Z,63.37
2019-04-04T19:02:22.188Z,54.47
2019-04-04T19:12:28.263Z,65.40
2019-04-04T19:22:34.278Z,61.80
2019-04-04T19:32:40.176Z,52.30
2019-04-04T19:42:46.155Z,53.93
2019-04-04T19:52:52.081Z,59.30
2019-04-04T20:02:57.887Z,53.37
2019-04-04T20:13:03.851Z,55.63
2019-04-04T20:23:09.795Z,51.90
2019-04-04T20:33:15.676Z,55.03
2019-04-04T20:43:21.650Z,54.60
2019-04-04T20:53:27.686Z,66.17
2019-04-04T21:03:33.383Z,64.67
2019-04-04T21:13:39.760Z,56.00
2019-04-04T21:23:45.361Z,54.13
2019-04-04T21:33:50.878Z,53.37
2019-04-04T21:44:08.256Z,62.10
2019-04-04T21:54:03.631Z,57.87
2019-04-04T22:04:09.150Z,64.10
2019-04-04T22:14:21.693Z,58.00
2019-04-04T22:24:22.439Z,59.80
2019-04-04T22:34:28.154Z,58.13
2019-04-04T22:44:35.084Z,52.80
2019-04-04T22:54:40.901Z,48.30
2019-04-04T23:04:46.434Z,54.17
2019-04-04T23:14:51.984Z,43.13
2019-04-04T23:24:57.498Z,43.40
2019-04-04T23:35:03.079Z,36.30
2019-04-04T23:45:09.166Z,48.17
2019-04-04T23:55:14.678Z,53.20
